createdAt,value
2023-01-28T00:00:51.489Z,1.50
2023-01-28T00:03:18.088Z,1.60
2023-01-28T00:05:44.753Z,1.77
2023-01-28T00:08:11.638Z,1.57
2023-01-28T00:10:41.094Z,1.53
2023-01-28T00:13:07.968Z,1.30
2023-01-28T00:15:34.790Z,1.60
2023-01-28T00:18:01.396Z,1.50
2023-01-28T00:20:27.972Z,1.30
2023-01-28T00:22:54.576Z,1.70
2023-01-28T00:25:21.357Z,1.40
2023-01-28T00:27:48.258Z,1.83
2023-01-28T00:30:14.860Z,1.77
2023-01-28T00:32:43.519Z,1.50
2023-01-28T00:35:11.587Z,1.40
2023-01-28T00:37:38.188Z,1.43
2023-01-28T00:40:05.492Z,1.50
2023-01-28T00:42:32.371Z,1.30
2023-01-28T00:44:58.904Z,1.67
2023-01-28T00:47:25.545Z,1.33
2023-01-28T00:49:52.156Z,1.27
2023-01-28T00:52:18.687Z,1.20
2023-01-28T00:54:45.305Z,1.70
2023-01-28T00:57:12.709Z,1.47
2023-01-28T00:59:39.342Z,1.57
2023-01-28T01:02:12.617Z,1.90
2023-01-28T01:04:40.363Z,1.40
2023-01-28T01:07:07.461Z,1.43
2023-01-28T01:09:34.076Z,1.37
2023-01-28T01:12:00.686Z,1.67
2023-01-28T01:14:27.249Z,1.40
2023-01-28T01:16:53.859Z,1.37
2023-01-28T01:19:20.428Z,1.57
2023-01-28T01:21:50.711Z,1.23
2023-01-28T01:24:18.083Z,1.98
2023-01-28T01:26:44.779Z,1.20
2023-01-28T01:29:11.566Z,1.80
2023-01-28T01:31:38.894Z,1.57
2023-01-28T01:34:05.540Z,1.20
2023-01-28T01:36:32.123Z,1.40
2023-01-28T01:38:58.936Z,1.20
2023-01-28T01:41:32.079Z,1.53
2023-01-28T01:44:01.306Z,1.50
2023-01-28T01:46:38.382Z,1.60
2023-01-28T01:49:26.900Z,1.60
2023-01-28T01:52:16.031Z,1.60
2023-01-28T01:54:47.029Z,1.40
2023-01-28T01:57:17.225Z,1.50
2023-01-28T01:59:44.667Z,1.55
2023-01-28T02:02:12.886Z,1.73
2023-01-28T02:04:41.913Z,1.70
2023-01-28T02:07:09.980Z,1.50
2023-01-28T02:09:38.480Z,1.50
2023-01-28T02:12:10.257Z,1.67
2023-01-28T02:14:45.641Z,1.20
2023-01-28T02:17:13.440Z,1.20
2023-01-28T02:19:45.922Z,1.40
2023-01-28T02:22:35.804Z,1.27
2023-01-28T02:25:14.843Z,1.33
2023-01-28T02:28:19.288Z,1.27
2023-01-28T02:30:54.794Z,1.47
2023-01-28T02:33:42.241Z,1.50
2023-01-28T02:36:31.888Z,1.47
2023-01-28T02:39:10.845Z,1.80
2023-01-28T02:41:48.972Z,1.27
2023-01-28T02:44:15.537Z,1.17
2023-01-28T02:47:00.923Z,1.13
2023-01-28T02:49:30.602Z,1.13
2023-01-28T02:52:53.439Z,0.90
2023-01-28T02:55:38.843Z,1.30
2023-01-28T02:58:29.172Z,0.93
2023-01-28T03:01:22.648Z,1.00
2023-01-28T03:03:59.236Z,1.30
2023-01-28T03:06:41.051Z,1.23
2023-01-28T03:09:24.600Z,1.00
2023-01-28T03:12:12.875Z,0.90
2023-01-28T03:15:00.250Z,0.70
2023-01-28T03:18:02.557Z,1.10
2023-01-28T03:20:54.297Z,1.20
2023-01-28T03:23:45.622Z,1.47
2023-01-28T03:29:25.771Z,0.77
2023-01-28T03:32:13.188Z,1.30
2023-01-28T03:34:59.183Z,1.13
2023-01-28T03:37:28.586Z,0.97
2023-01-28T03:39:58.105Z,0.97
2023-01-28T03:42:24.709Z,1.03
2023-01-28T03:44:51.312Z,1.07
2023-01-28T03:47:23.280Z,1.20
2023-01-28T03:49:52.609Z,1.23
2023-01-28T03:52:22.463Z,1.40
2023-01-28T03:54:49.689Z,1.50
2023-01-28T03:57:17.926Z,1.10
2023-01-28T03:59:44.573Z,1.20
2023-01-28T04:02:13.691Z,1.23
2023-01-28T04:04:41.291Z,1.10
2023-01-28T04:07:12.117Z,1.37
2023-01-28T04:09:38.740Z,1.17
2023-01-28T04:12:06.120Z,1.13
2023-01-28T04:14:33.160Z,1.50
2023-01-28T04:17:00.197Z,1.40
2023-01-28T04:19:27.511Z,1.13
2023-01-28T04:21:54.417Z,1.37
2023-01-28T04:24:22.024Z,1.40
2023-01-28T04:26:48.703Z,1.20
2023-01-28T04:29:15.347Z,1.30
2023-01-28T04:31:41.992Z,1.30
2023-01-28T04:34:09.373Z,1.43
2023-01-28T04:36:36.027Z,1.30
2023-01-28T04:39:03.607Z,1.20
2023-01-28T04:41:30.399Z,1.30
2023-01-28T04:43:57.002Z,1.13
2023-01-28T04:46:23.636Z,1.67
2023-01-28T04:48:50.371Z,1.23
2023-01-28T04:51:17.004Z,1.30
2023-01-28T04:53:43.561Z,1.60
2023-01-28T04:56:10.212Z,1.37
2023-01-28T04:58:36.829Z,2.00
2023-01-28T05:01:03.559Z,1.33
2023-01-28T05:03:30.327Z,1.23
2023-01-28T05:05:56.882Z,1.20
2023-01-28T05:08:23.467Z,1.53
2023-01-28T05:10:50.062Z,1.37
2023-01-28T05:13:16.625Z,1.77
2023-01-28T05:15:43.190Z,1.17
2023-01-28T05:18:09.816Z,1.40
2023-01-28T05:20:36.381Z,1.27
2023-01-28T05:23:03.037Z,1.37
2023-01-28T05:25:29.638Z,1.20
2023-01-28T05:27:56.298Z,1.17
2023-01-28T05:30:22.888Z,1.53
2023-01-28T05:32:49.925Z,1.10
2023-01-28T05:35:16.989Z,1.00
2023-01-28T05:37:43.768Z,1.40
2023-01-28T05:40:11.106Z,1.20
2023-01-28T05:42:37.688Z,1.37
2023-01-28T05:45:04.601Z,1.23
2023-01-28T05:47:31.165Z,1.50
2023-01-28T05:49:57.712Z,1.40
2023-01-28T05:52:24.282Z,1.20
2023-01-28T05:54:50.929Z,1.00
2023-01-28T05:57:17.521Z,1.00
2023-01-28T05:59:44.114Z,1.33
2023-01-28T06:02:10.810Z,1.30
2023-01-28T06:04:37.432Z,1.13
2023-01-28T06:07:04.006Z,1.20
2023-01-28T06:09:30.654Z,1.00
2023-01-28T06:11:57.204Z,1.17
2023-01-28T06:14:23.783Z,1.00
2023-01-28T06:16:52.212Z,1.30
2023-01-28T06:19:18.808Z,1.10
2023-01-28T06:21:45.351Z,1.40
2023-01-28T06:24:12.010Z,1.20
2023-01-28T06:26:38.645Z,0.77
2023-01-28T06:29:05.405Z,1.50
2023-01-28T06:31:32.009Z,0.90
2023-01-28T06:33:58.594Z,1.33
2023-01-28T06:36:25.210Z,1.10
2023-01-28T06:38:51.784Z,1.37
2023-01-28T06:41:18.376Z,1.10
2023-01-28T06:43:45.004Z,1.20
2023-01-28T06:46:11.645Z,1.10
2023-01-28T06:48:38.368Z,1.57
2023-01-28T06:51:05.432Z,1.47
2023-01-28T06:53:32.150Z,1.00
2023-01-28T06:55:58.739Z,1.33
2023-01-28T06:58:25.337Z,1.40
2023-01-28T07:00:53.494Z,1.33
2023-01-28T07:03:20.117Z,1.50
2023-01-28T07:05:46.774Z,1.47
2023-01-28T07:08:13.495Z,1.30
2023-01-28T07:10:40.129Z,1.20
2023-01-28T07:13:06.676Z,1.57
2023-01-28T07:15:33.305Z,1.20
2023-01-28T07:17:59.901Z,1.23
2023-01-28T07:20:26.473Z,1.37
2023-01-28T07:22:53.108Z,1.60
2023-01-28T07:25:20.024Z,1.20
2023-01-28T07:27:52.517Z,1.17
2023-01-28T07:30:20.727Z,1.20
2023-01-28T07:32:47.674Z,1.30
2023-01-28T07:35:14.573Z,1.40
2023-01-28T07:37:41.164Z,1.13
2023-01-28T07:40:08.598Z,1.50
2023-01-28T07:42:35.247Z,2.10
2023-01-28T07:45:01.966Z,1.60
2023-01-28T07:47:28.674Z,2.80
2023-01-28T07:49:55.480Z,2.20
2023-01-28T07:52:22.056Z,2.67
2023-01-28T07:54:48.671Z,2.80
2023-01-28T07:57:15.295Z,2.37
2023-01-28T07:59:41.913Z,1.23
2023-01-28T08:02:11.727Z,1.87
2023-01-28T08:04:40.484Z,1.10
2023-01-28T08:07:08.258Z,1.60
2023-01-28T08:09:35.236Z,1.43
2023-01-28T08:12:02.755Z,0.87
2023-01-28T08:14:29.588Z,0.90
2023-01-28T08:16:57.564Z,1.27
2023-01-28T08:19:24.178Z,0.97
2023-01-28T08:21:51.124Z,0.93
2023-01-28T08:24:17.934Z,0.80
2023-01-28T08:26:44.949Z,0.80
2023-01-28T08:29:13.785Z,1.00
2023-01-28T08:31:40.494Z,1.00
2023-01-28T08:34:07.121Z,1.03
2023-01-28T08:36:33.701Z,0.80
2023-01-28T08:39:00.245Z,1.10
2023-01-28T08:41:26.801Z,0.77
2023-01-28T08:43:53.393Z,1.37
2023-01-28T08:46:20.051Z,1.83
2023-01-28T08:48:46.793Z,1.20
2023-01-28T08:51:13.357Z,1.17
2023-01-28T08:53:39.917Z,0.97
2023-01-28T08:56:06.903Z,1.03
2023-01-28T08:58:33.585Z,1.00
2023-01-28T09:01:07.106Z,1.00
2023-01-28T09:03:33.796Z,0.93
2023-01-28T09:06:02.312Z,0.70
2023-01-28T09:08:28.920Z,1.07
2023-01-28T09:10:56.945Z,1.00
2023-01-28T09:13:24.017Z,0.63
2023-01-28T09:15:51.442Z,0.80
2023-01-28T09:18:18.911Z,0.97
2023-01-28T09:20:45.938Z,1.10
2023-01-28T09:23:13.265Z,0.63
2023-01-28T09:25:40.111Z,0.83
2023-01-28T09:28:07.502Z,1.07
2023-01-28T09:30:37.275Z,1.63
2023-01-28T09:33:04.930Z,1.03
2023-01-28T09:35:31.527Z,1.00
2023-01-28T09:37:59.162Z,0.60
2023-01-28T09:40:52.266Z,0.90
2023-01-28T09:43:34.248Z,0.80
2023-01-28T09:46:04.709Z,1.00
2023-01-28T09:48:50.682Z,0.70
2023-01-28T09:51:35.963Z,1.03
2023-01-28T09:54:12.723Z,0.90
2023-01-28T09:56:45.523Z,0.90
2023-01-28T09:59:23.328Z,1.00
2023-01-28T10:02:17.885Z,1.13
2023-01-28T10:04:59.875Z,1.40
2023-01-28T10:07:39.309Z,0.70
2023-01-28T10:10:18.102Z,0.70
2023-01-28T10:13:22.445Z,1.03
2023-01-28T10:15:59.062Z,0.57
2023-01-28T10:18:35.322Z,1.10
2023-01-28T10:21:13.200Z,0.80
2023-01-28T10:23:49.998Z,1.00
2023-01-28T10:26:39.164Z,2.63
2023-01-28T10:29:19.372Z,1.40
2023-01-28T10:31:53.666Z,1.20
2023-01-28T10:34:21.888Z,0.80
2023-01-28T10:36:49.361Z,0.88
2023-01-28T10:39:18.246Z,0.80
2023-01-28T10:41:56.639Z,0.82
2023-01-28T10:44:38.338Z,0.80
2023-01-28T10:47:12.816Z,1.13
2023-01-28T10:49:44.236Z,1.23
2023-01-28T10:52:12.839Z,0.98
2023-01-28T10:54:39.372Z,0.90
2023-01-28T10:57:18.032Z,0.85
2023-01-28T10:59:45.299Z,1.00
2023-01-28T11:02:24.237Z,0.60
2023-01-28T11:05:17.112Z,0.75
2023-01-28T11:07:44.670Z,0.63
2023-01-28T11:10:29.660Z,0.80
2023-01-28T11:12:58.287Z,0.65
2023-01-28T11:15:25.643Z,0.80
2023-01-28T11:18:17.428Z,0.60
2023-01-28T11:20:51.899Z,0.68
2023-01-28T11:23:28.460Z,0.80
2023-01-28T11:26:19.018Z,0.70
2023-01-28T11:28:46.888Z,0.60
2023-01-28T11:31:16.394Z,0.60
2023-01-28T11:33:54.620Z,0.60
2023-01-28T11:36:29.118Z,0.60
2023-01-28T11:38:58.833Z,0.73
2023-01-28T11:41:29.780Z,0.60
2023-01-28T11:43:58.613Z,0.60
2023-01-28T11:47:00.826Z,0.68
2023-01-28T11:49:39.537Z,0.70
2023-01-28T11:53:05.117Z,0.93
2023-01-28T11:58:12.483Z,0.60
2023-01-28T12:00:59.796Z,0.50
2023-01-28T12:03:49.287Z,0.77
2023-01-28T12:06:18.907Z,0.98
2023-01-28T12:08:52.835Z,0.52
2023-01-28T12:12:04.999Z,0.88
2023-01-28T12:14:40.544Z,0.60
2023-01-28T12:17:26.327Z,0.60
2023-01-28T12:20:34.755Z,0.40
2023-01-28T12:23:30.339Z,0.50
2023-01-28T12:26:10.019Z,0.65
2023-01-28T12:29:14.446Z,0.73
2023-01-28T12:31:59.560Z,0.60
2023-01-28T12:35:02.478Z,0.50
2023-01-28T12:38:09.042Z,0.70
2023-01-28T12:40:56.865Z,0.70
2023-01-28T12:43:26.378Z,0.70
2023-01-28T12:46:03.492Z,0.90
2023-01-28T12:48:39.976Z,0.77
2023-01-28T12:51:18.271Z,0.88
2023-01-28T12:53:59.816Z,0.60
2023-01-28T12:56:37.397Z,0.68
2023-01-28T12:59:21.028Z,0.55
2023-01-28T13:02:26.536Z,0.60
2023-01-28T13:05:21.487Z,0.63
2023-01-28T13:08:12.060Z,1.00
2023-01-28T13:10:46.351Z,0.45
2023-01-28T13:13:38.270Z,0.82
2023-01-28T13:16:07.789Z,1.05
2023-01-28T13:18:43.629Z,0.60
2023-01-28T13:21:25.281Z,0.65
2023-01-28T13:24:05.825Z,0.55
2023-01-28T13:27:01.707Z,0.60
2023-01-28T13:29:33.719Z,0.88
2023-01-28T13:32:03.071Z,0.82
2023-01-28T13:34:44.269Z,1.00
2023-01-28T13:37:29.218Z,0.80
2023-01-28T13:40:23.963Z,0.73
2023-01-28T13:43:06.478Z,0.98
2023-01-28T13:45:33.866Z,1.20
2023-01-28T13:48:19.618Z,0.82
2023-01-28T13:50:47.676Z,0.80
2023-01-28T13:53:34.952Z,0.82
2023-01-28T13:56:06.698Z,0.82
2023-01-28T13:58:55.256Z,1.20
2023-01-28T14:01:57.500Z,0.75
2023-01-28T14:04:52.150Z,0.90
2023-01-28T14:07:21.634Z,0.75
2023-01-28T14:10:30.064Z,1.17
2023-01-28T14:13:02.791Z,1.00
2023-01-28T14:16:00.789Z,0.90
2023-01-28T14:18:43.248Z,0.80
2023-01-28T14:21:17.171Z,1.10
2023-01-28T14:23:52.962Z,0.85
2023-01-28T14:26:28.899Z,0.65
2023-01-28T14:29:09.236Z,0.90
2023-01-28T14:31:39.329Z,1.02
2023-01-28T14:34:31.182Z,1.00
2023-01-28T14:37:03.112Z,0.73
2023-01-28T14:39:32.828Z,1.02
2023-01-28T14:42:02.532Z,0.88
2023-01-28T14:45:14.366Z,0.90
2023-01-28T14:48:18.889Z,0.90
2023-01-28T14:50:57.640Z,0.88
2023-01-28T14:53:39.739Z,0.57
2023-01-28T14:56:31.395Z,0.90
2023-01-28T14:59:08.015Z,0.80
2023-01-28T15:01:34.682Z,0.70
2023-01-28T15:04:01.394Z,0.90
2023-01-28T15:06:35.547Z,0.95
2023-01-28T15:09:12.913Z,0.90
2023-01-28T15:11:43.586Z,1.30
2023-01-28T15:14:32.093Z,1.17
2023-01-28T15:17:00.593Z,1.70
2023-01-28T15:19:33.144Z,2.07
2023-01-28T15:22:07.989Z,1.40
2023-01-28T15:24:36.139Z,0.93
2023-01-28T15:27:03.710Z,1.13
2023-01-28T15:29:34.750Z,1.50
2023-01-28T15:34:30.510Z,1.23
2023-01-28T15:36:58.756Z,1.70
2023-01-28T15:39:27.416Z,1.27
2023-01-28T15:42:01.855Z,1.03
2023-01-28T15:44:33.602Z,1.77
2023-01-28T15:47:01.751Z,4.10
2023-01-28T15:49:32.965Z,3.43
2023-01-28T15:52:00.219Z,3.30
2023-01-28T15:54:27.110Z,1.73
2023-01-28T15:56:53.720Z,3.53
2023-01-28T15:59:31.163Z,4.07
2023-01-28T16:02:16.777Z,2.97
2023-01-28T16:04:43.441Z,2.30
2023-01-28T16:07:10.344Z,1.67
2023-01-28T16:09:37.213Z,1.37
2023-01-28T16:12:13.971Z,1.30
2023-01-28T16:14:44.006Z,1.43
2023-01-28T16:17:16.762Z,1.10
2023-01-28T16:19:59.910Z,1.70
2023-01-28T16:22:40.412Z,1.60
2023-01-28T16:25:22.338Z,1.55
2023-01-28T16:27:49.440Z,1.50
2023-01-28T16:30:17.360Z,1.20
2023-01-28T16:32:45.588Z,1.30
2023-01-28T16:35:21.956Z,1.23
2023-01-28T16:37:49.853Z,1.60
2023-01-28T16:40:19.574Z,1.50
2023-01-28T16:42:48.660Z,2.20
2023-01-28T16:45:20.987Z,1.37
2023-01-28T16:47:47.816Z,1.70
2023-01-28T16:50:15.465Z,2.20
2023-01-28T16:52:44.449Z,1.73
2023-01-28T16:55:19.113Z,1.70
2023-01-28T16:57:48.639Z,1.57
2023-01-28T17:00:23.274Z,1.80
2023-01-28T17:02:54.193Z,1.83
2023-01-28T17:05:22.290Z,1.85
2023-01-28T17:07:49.739Z,1.60
2023-01-28T17:10:17.431Z,1.60
2023-01-28T17:12:44.859Z,1.97
2023-01-28T17:15:11.916Z,1.40
2023-01-28T17:17:38.696Z,1.70
2023-01-28T17:20:06.290Z,1.47
2023-01-28T17:22:32.958Z,1.30
2023-01-28T17:24:59.561Z,1.60
2023-01-28T17:27:26.208Z,1.50
2023-01-28T17:29:53.607Z,1.50
2023-01-28T17:32:20.185Z,1.90
2023-01-28T17:34:49.822Z,1.43
2023-01-28T17:37:16.525Z,1.50
2023-01-28T17:39:43.146Z,1.43
2023-01-28T17:42:09.748Z,1.90
2023-01-28T17:44:36.379Z,2.20
2023-01-28T17:47:03.131Z,1.97
2023-01-28T17:49:29.967Z,1.63
2023-01-28T17:51:56.565Z,1.80
2023-01-28T17:54:24.378Z,1.77
2023-01-28T17:56:51.303Z,1.63
2023-01-28T17:59:17.949Z,1.67
2023-01-28T18:01:45.223Z,1.50
2023-01-28T18:04:13.197Z,1.90
2023-01-28T18:06:40.079Z,1.80
2023-01-28T18:09:07.212Z,1.70
2023-01-28T18:11:34.011Z,1.40
2023-01-28T18:14:00.976Z,1.60
2023-01-28T18:16:27.698Z,1.33
2023-01-28T18:18:54.242Z,2.00
2023-01-28T18:21:52.305Z,1.70
2023-01-28T18:24:20.142Z,2.07
2023-01-28T18:26:46.996Z,1.50
2023-01-28T18:29:16.870Z,1.90
2023-01-28T18:31:43.986Z,2.67
2023-01-28T18:34:10.593Z,1.50
2023-01-28T18:36:37.128Z,2.23
2023-01-28T18:39:03.784Z,2.13
2023-01-28T18:41:30.383Z,2.50
2023-01-28T18:43:56.976Z,1.90
2023-01-28T18:46:23.507Z,1.60
2023-01-28T18:48:50.078Z,1.83
2023-01-28T18:51:29.396Z,2.37
2023-01-28T18:54:00.726Z,2.00
2023-01-28T18:56:28.886Z,1.65
2023-01-28T18:59:01.433Z,1.57
2023-01-28T19:01:28.690Z,1.90
2023-01-28T19:03:56.775Z,1.73
2023-01-28T19:06:24.989Z,2.10
2023-01-28T19:08:53.727Z,1.80
2023-01-28T19:11:21.979Z,1.50
2023-01-28T19:13:48.682Z,1.20
2023-01-28T19:16:15.443Z,1.33
2023-01-28T19:18:42.153Z,2.03
2023-01-28T19:21:09.528Z,2.13
2023-01-28T19:23:49.293Z,1.70
2023-01-28T19:26:21.069Z,2.28
2023-01-28T19:28:49.305Z,1.90
2023-01-28T19:31:18.601Z,1.80
2023-01-28T19:33:46.214Z,1.97
2023-01-28T19:36:13.774Z,1.60
2023-01-28T19:38:41.015Z,1.37
2023-01-28T19:41:08.030Z,1.80
2023-01-28T19:43:35.256Z,2.60
2023-01-28T19:46:04.527Z,2.47
2023-01-28T19:48:32.116Z,1.33
2023-01-28T19:50:59.238Z,1.80
2023-01-28T19:53:25.826Z,1.87
2023-01-28T19:55:52.470Z,1.33
2023-01-28T19:58:19.053Z,1.80
2023-01-28T20:00:45.737Z,1.40
2023-01-28T20:03:12.846Z,1.53
2023-01-28T20:05:39.564Z,1.70
2023-01-28T20:08:06.291Z,1.40
2023-01-28T20:10:33.025Z,2.20
2023-01-28T20:12:59.591Z,2.10
2023-01-28T20:15:26.273Z,2.73
2023-01-28T20:17:52.872Z,2.87
2023-01-28T20:20:19.461Z,2.30
2023-01-28T20:22:45.980Z,2.20
2023-01-28T20:25:12.650Z,1.97
2023-01-28T20:27:39.194Z,1.60
2023-01-28T20:30:06.295Z,2.37
2023-01-28T20:32:32.984Z,2.07
2023-01-28T20:34:59.677Z,1.80
2023-01-28T20:37:26.265Z,1.93
2023-01-28T20:39:52.879Z,2.07
2023-01-28T20:42:19.459Z,1.80
2023-01-28T20:44:46.057Z,2.20
2023-01-28T20:47:12.649Z,2.60
2023-01-28T20:49:39.190Z,2.20
2023-01-28T20:52:05.866Z,1.70
2023-01-28T20:54:32.504Z,2.10
2023-01-28T20:56:59.151Z,2.10
2023-01-28T20:59:25.771Z,2.67
2023-01-28T21:01:52.492Z,1.80
2023-01-28T21:04:19.194Z,2.47
2023-01-28T21:06:45.783Z,1.77
2023-01-28T21:09:12.413Z,2.40
2023-01-28T21:11:38.973Z,1.80
2023-01-28T21:14:05.571Z,2.50
2023-01-28T21:16:32.334Z,2.10
2023-01-28T21:18:58.902Z,2.30
2023-01-28T21:21:27.658Z,2.07
2023-01-28T21:23:56.894Z,2.10
2023-01-28T21:26:24.274Z,2.03
2023-01-28T21:28:51.061Z,2.30
2023-01-28T21:31:20.935Z,2.67
2023-01-28T21:33:59.145Z,2.00
2023-01-28T21:36:26.680Z,2.33
2023-01-28T21:38:55.467Z,2.27
2023-01-28T21:41:22.328Z,2.53
2023-01-28T21:43:52.317Z,1.90
2023-01-28T21:46:22.801Z,2.60
2023-01-28T21:48:49.653Z,1.90
2023-01-28T21:51:34.788Z,2.40
2023-01-28T21:54:05.581Z,2.00
2023-01-28T21:56:32.198Z,2.15
2023-01-28T21:59:17.642Z,2.23
2023-01-28T22:01:44.840Z,2.00
2023-01-28T22:04:12.353Z,1.97
2023-01-28T22:06:38.935Z,2.00
2023-01-28T22:09:05.762Z,1.80
2023-01-28T22:11:32.645Z,1.60
2023-01-28T22:13:59.308Z,2.20
2023-01-28T22:16:25.982Z,1.80
2023-01-28T22:18:52.702Z,2.10
2023-01-28T22:21:19.815Z,1.83
2023-01-28T22:23:46.577Z,1.70
2023-01-28T22:26:13.229Z,2.10
2023-01-28T22:28:40.103Z,2.17
2023-01-28T22:31:09.571Z,1.70
2023-01-28T22:33:38.030Z,1.83
2023-01-28T22:36:08.919Z,1.93
2023-01-28T22:38:37.880Z,1.73
2023-01-28T22:41:15.183Z,1.70
2023-01-28T22:43:44.118Z,1.70
2023-01-28T22:46:11.709Z,1.80
2023-01-28T22:48:39.621Z,2.07
2023-01-28T22:51:18.743Z,1.87
2023-01-28T22:54:02.023Z,1.90
2023-01-28T22:56:31.989Z,1.97
2023-01-28T22:59:02.911Z,1.70
2023-01-28T23:04:28.876Z,1.67
2023-01-28T23:07:20.084Z,1.80
